Lihue, HI

9:15 PM HST on September 18, 2014 (GMT -1000)
Wheeler Army Air Field | Change Station
CLOSE
Current Station
Airport
Location: Wheeler AAF,
Elevation: 837 ft
Nearby Weather Stations

Elev 837 ft 21.48 °N, 158.04 °W | Updated 17 minutes ago

Overcast
Overcast
72 °F
Feels Like 72 °F
N
5
Wind Variable Wind from WNW

Today
High -- | Low -- °F
--% Chance of Precip.
Yesterday
High -- | Low -- °F
Precip. -- in
6:25 AM 6:37 PM
Waning Crescent, 21% visible
Pressure 29.95 in
Visibility 10.0 miles
Clouds Overcast 4300 ft
Dew Point 69 °F
Humidity 91%
Rainfall 0.31 in
Snow Depth Not available.
UV 0 out of 12
Pollen Not available.
Air Quality Not available.
Flu Activity Not available.
METAR PHHI 190658Z AUTO 29004KT 10SM OVC043 22/21 A2998 RMK AO2 SLP141 T02230207 $

More Conditions Fewer Conditions

Pressure 29.95 in
Visibility 10.0 miles
Clouds Overcast 4300 ft
Dew Point 69 °F
Humidity 91%
Rainfall 0.31 in
Snow Depth Not available.
UV 0 out of 12
Pollen Not available.
Air Quality Not available.
Flu Activity Not available.
METAR PHHI 190658Z AUTO 29004KT 10SM OVC043 22/21 A2998 RMK AO2 SLP141 T02230207 $

More Conditions Fewer Conditions

10-Day Weather Forecast

Almanac

Astronomy

Sep. 18, 2014 Rise Set
Actual Time 6:25 AM HST 6:37 PM HST
Civil Twilight 6:02 AM HST 6:59 PM HST
Nautical Twilight 5:36 AM HST 7:25 PM HST
Astronomical Twilight 5:10 AM HST 7:51 PM HST
Moon 1:54 AM HST (9/18) 3:11 PM HST (9/18)
Length of Visible Light 12h 56m
Length of Day
12h 12m
Tomorrow will be 1m 16s shorter.
Waning Crescent, 21% of the Moon is Illuminated
Sep 19
Waning Crescent
Sep 24
New
Oct 1
First Quarter
Oct 8
Full
Oct 15
Last Quarter

Yesterday's Extremes

State Highs State Lows

Community

WunderPhotos

Upload Photos

1,754,575 photos uploaded!

Nearby

Snow Depth

Station Depth Elevation
No new snow has been reported.

Earthquake Activity

City Distance Mag. Time & Date
No recent earthquake activity has been reported nearby.
Minimum magnitude displayed is 2.5.

Coastal Water Temperatures

Place Temperature
No Stations Reporting

Nearby Weather Stations